PWSweather.com
Personal Weather Stations
Station Observations
ISYDDANM23
Felsted, AabenraaDK 6200

FelstedAabenraaDK 6200

Lat: 54.977066, Lon: 9.507192

Elevation: 135

Station Type: Davis Vantage Pro 2 Plus 24H

http://www.valkaer.dk

High Low Average
Temperature 42.0°F5.6°C 33.1°F0.6°C 38.4°F3.6°C
Dew Point 39.1°F3.9°C 31.0°F-0.6°C 35.8°F2.1°C
Winds 20.7 mph 33.3 kmh 2.3 mph 3.7 kmh 9.0 mph SSW14.5 kmh SSW
Wind Gusts 32.2 mph51.8 kmh 3.5 mph5.6 kmh 12.0 mph19.3 kmh
Humidity 94% 83% 90%
Pressure 29.19 in988.5 mb 28.86 in977.3 mb -
Precipitation 0.43 in10.9 mm - -
Hour Temp Dew Point Humidity Winds Wind Gusts Pressure Precip Precip Rate Daily Precip Total
12:00 AM 35.0°F1.7°C 31.8°F-0.1°C 88% 3.5 mph SSE5.6 kmh SSE 6.9 mph11.1 kmh 28.97 in981.0 mb - 0.00 in0.0 mm 0.00 in0.0 mm
12:10 AM 34.5°F1.4°C 31.3°F-0.4°C 88% 2.3 mph SE3.7 kmh SE 4.6 mph7.4 kmh 28.97 in981.0 mb - 0.00 in0.0 mm 0.00 in0.0 mm
12:15 AM 34.4°F1.3°C 31.5°F-0.3°C 89% 5.8 mph SSE9.3 kmh SSE 10.4 mph16.7 kmh 28.97 in981.0 mb - 0.00 in0.0 mm 0.00 in0.0 mm
12:20 AM 34.2°F1.2°C 31.3°F-0.4°C 89% 4.6 mph SSE7.4 kmh SSE 8.1 mph13.0 kmh 28.97 in981.0 mb - 0.00 in0.0 mm 0.00 in0.0 mm
12:25 AM 34.2°F1.2°C 31.3°F-0.4°C 89% 3.5 mph SSE5.6 kmh SSE 4.6 mph7.4 kmh 28.96 in980.7 mb - 0.01 in0.3 mm 0.01 in0.3 mm
12:30 AM 34.1°F1.2°C 31.5°F-0.3°C 90% 5.8 mph SE9.3 kmh SE 9.2 mph14.8 kmh 28.96 in980.7 mb - 0.01 in0.3 mm 0.01 in0.3 mm
12:35 AM 34.0°F1.1°C 31.4°F-0.3°C 90% 3.5 mph SE5.6 kmh SE 4.6 mph7.4 kmh 28.96 in980.7 mb - 0.01 in0.3 mm 0.01 in0.3 mm
12:40 AM 33.9°F1.1°C 31.3°F-0.4°C 90% 4.6 mph SSE7.4 kmh SSE 6.9 mph11.1 kmh 28.96 in980.7 mb - 0.01 in0.3 mm 0.01 in0.3 mm
12:45 AM 33.8°F1.0°C 31.2°F-0.4°C 90% 3.5 mph SSE5.6 kmh SSE 4.6 mph7.4 kmh 28.96 in980.7 mb - 0.01 in0.3 mm 0.01 in0.3 mm
12:50 AM 33.7°F0.9°C 31.1°F-0.5°C 90% 3.5 mph SE5.6 kmh SE 4.6 mph7.4 kmh 28.96 in980.7 mb - 0.01 in0.3 mm 0.01 in0.3 mm
12:55 AM 33.7°F0.9°C 31.1°F-0.5°C 90% 2.3 mph SE3.7 kmh SE 3.5 mph5.6 kmh 28.96 in980.7 mb - 0.01 in0.3 mm 0.01 in0.3 mm
01:00 AM 33.6°F0.9°C 31.0°F-0.6°C 90% 2.3 mph SE3.7 kmh SE 3.5 mph5.6 kmh 28.96 in980.7 mb - 0.01 in0.3 mm 0.01 in0.3 mm
01:10 AM 33.5°F0.8°C 31.2°F-0.4°C 91% 3.5 mph SE5.6 kmh SE 4.6 mph7.4 kmh 28.95 in980.4 mb - 0.01 in0.3 mm 0.01 in0.3 mm
01:15 AM 33.5°F0.8°C 31.2°F-0.4°C 91% 3.5 mph SE5.6 kmh SE 4.6 mph7.4 kmh 28.95 in980.4 mb - 0.01 in0.3 mm 0.01 in0.3 mm
01:20 AM 33.5°F0.8°C 31.2°F-0.4°C 91% 3.5 mph SSE5.6 kmh SSE 4.6 mph7.4 kmh 28.95 in980.4 mb - 0.01 in0.3 mm 0.01 in0.3 mm
01:25 AM 33.5°F0.8°C 31.2°F-0.4°C 91% 3.5 mph SE5.6 kmh SE 4.6 mph7.4 kmh 28.95 in980.4 mb - 0.00 in0.0 mm 0.01 in0.3 mm
01:30 AM 33.5°F0.8°C 31.2°F-0.4°C 91% 3.5 mph SE5.6 kmh SE 3.5 mph5.6 kmh 28.95 in980.4 mb - 0.00 in0.0 mm 0.01 in0.3 mm
01:35 AM 33.5°F0.8°C 31.2°F-0.4°C 91% 3.5 mph SE5.6 kmh SE 5.8 mph9.3 kmh 28.95 in980.4 mb - 0.00 in0.0 mm 0.01 in0.3 mm
01:40 AM 33.5°F0.8°C 31.2°F-0.4°C 91% 4.6 mph SSE7.4 kmh SSE 5.8 mph9.3 kmh 28.95 in980.4 mb - 0.01 in0.3 mm 0.02 in0.5 mm
01:45 AM 33.5°F0.8°C 31.2°F-0.4°C 91% 4.6 mph SSE7.4 kmh SSE 6.9 mph11.1 kmh 28.95 in980.4 mb - 0.01 in0.3 mm 0.02 in0.5 mm
01:50 AM 33.5°F0.8°C 31.2°F-0.4°C 91% 3.5 mph SSE5.6 kmh SSE 4.6 mph7.4 kmh 28.95 in980.4 mb - 0.01 in0.3 mm 0.02 in0.5 mm
01:55 AM 33.5°F0.8°C 31.4°F-0.3°C 92% 4.6 mph SSE7.4 kmh SSE 4.6 mph7.4 kmh 28.95 in980.4 mb - 0.01 in0.3 mm 0.02 in0.5 mm
02:00 AM 33.5°F0.8°C 31.4°F-0.3°C 92% 3.5 mph SSE5.6 kmh SSE 5.8 mph9.3 kmh 28.95 in980.4 mb - 0.01 in0.3 mm 0.02 in0.5 mm
02:10 AM 33.5°F0.8°C 31.5°F-0.3°C 92% 3.5 mph SSE5.6 kmh SSE 5.8 mph9.3 kmh 28.94 in980.0 mb - 0.01 in0.3 mm 0.02 in0.5 mm
02:15 AM 33.5°F0.8°C 31.4°F-0.3°C 92% 5.8 mph SSE9.3 kmh SSE 8.1 mph13.0 kmh 28.94 in980.0 mb - 0.02 in0.5 mm 0.02 in0.5 mm
02:20 AM 33.5°F0.8°C 31.4°F-0.3°C 92% 5.8 mph SE9.3 kmh SE 6.9 mph11.1 kmh 28.94 in980.0 mb - 0.02 in0.5 mm 0.02 in0.5 mm
02:25 AM 33.4°F0.8°C 31.3°F-0.4°C 92% 4.6 mph SSE7.4 kmh SSE 5.8 mph9.3 kmh 28.94 in980.0 mb - 0.02 in0.5 mm 0.02 in0.5 mm
02:30 AM 33.3°F0.7°C 31.3°F-0.4°C 92% 4.6 mph SSE7.4 kmh SSE 4.6 mph7.4 kmh 28.94 in980.0 mb - 0.02 in0.5 mm 0.02 in0.5 mm
02:35 AM 33.3°F0.7°C 31.2°F-0.4°C 92% 4.6 mph SSE7.4 kmh SSE 6.9 mph11.1 kmh 28.94 in980.0 mb - 0.02 in0.5 mm 0.02 in0.5 mm
02:40 AM 33.3°F0.7°C 31.2°F-0.4°C 92% 4.6 mph SSE7.4 kmh SSE 5.8 mph9.3 kmh 28.94 in980.0 mb - 0.02 in0.5 mm 0.02 in0.5 mm
02:45 AM 33.3°F0.7°C 31.2°F-0.4°C 92% 2.3 mph SE3.7 kmh SE 4.6 mph7.4 kmh 28.94 in980.0 mb - 0.01 in0.3 mm 0.02 in0.5 mm
02:50 AM 33.3°F0.7°C 31.2°F-0.4°C 92% 5.8 mph SSE9.3 kmh SSE 6.9 mph11.1 kmh 28.94 in980.0 mb - 0.01 in0.3 mm 0.02 in0.5 mm
02:55 AM 33.2°F0.7°C 31.2°F-0.4°C 92% 4.6 mph SSE7.4 kmh SSE 5.8 mph9.3 kmh 28.93 in979.7 mb - 0.01 in0.3 mm 0.02 in0.5 mm
03:00 AM 33.2°F0.7°C 31.1°F-0.5°C 92% 4.6 mph SSE7.4 kmh SSE 5.8 mph9.3 kmh 28.93 in979.7 mb - 0.01 in0.3 mm 0.02 in0.5 mm
03:10 AM 33.1°F0.6°C 31.0°F-0.6°C 92% 4.6 mph SSE7.4 kmh SSE 8.1 mph13.0 kmh 28.93 in979.7 mb - 0.01 in0.3 mm 0.02 in0.5 mm
03:15 AM 33.2°F0.7°C 31.1°F-0.5°C 92% 4.6 mph SSE7.4 kmh SSE 6.9 mph11.1 kmh 28.93 in979.7 mb - 0.01 in0.3 mm 0.02 in0.5 mm
03:20 AM 33.1°F0.6°C 31.1°F-0.5°C 92% 3.5 mph SSE5.6 kmh SSE 9.2 mph14.8 kmh 28.93 in979.7 mb - 0.00 in0.0 mm 0.02 in0.5 mm
03:25 AM 33.2°F0.7°C 31.1°F-0.5°C 92% 5.8 mph SE9.3 kmh SE 6.9 mph11.1 kmh 28.92 in979.3 mb - 0.00 in0.0 mm 0.02 in0.5 mm
03:30 AM 33.2°F0.7°C 31.1°F-0.5°C 92% 3.5 mph SSE5.6 kmh SSE 5.8 mph9.3 kmh 28.92 in979.3 mb - 0.00 in0.0 mm 0.02 in0.5 mm
03:35 AM 33.2°F0.7°C 31.1°F-0.5°C 92% 6.9 mph SSE11.1 kmh SSE 10.4 mph16.7 kmh 28.92 in979.3 mb - 0.01 in0.3 mm 0.03 in0.8 mm
03:40 AM 33.3°F0.7°C 31.5°F-0.3°C 93% 3.5 mph SSE5.6 kmh SSE 4.6 mph7.4 kmh 28.92 in979.3 mb - 0.01 in0.3 mm 0.03 in0.8 mm
03:45 AM 33.3°F0.7°C 31.5°F-0.3°C 93% 4.6 mph SSE7.4 kmh SSE 6.9 mph11.1 kmh 28.92 in979.3 mb - 0.01 in0.3 mm 0.03 in0.8 mm
03:50 AM 33.3°F0.7°C 31.5°F-0.3°C 93% 4.6 mph SSE7.4 kmh SSE 5.8 mph9.3 kmh 28.91 in979.0 mb - 0.01 in0.3 mm 0.03 in0.8 mm
03:55 AM 33.4°F0.8°C 31.3°F-0.4°C 92% 6.9 mph SSE11.1 kmh SSE 10.4 mph16.7 kmh 28.91 in979.0 mb - 0.01 in0.3 mm 0.03 in0.8 mm
04:00 AM 33.5°F0.8°C 31.7°F-0.2°C 93% 4.6 mph SE7.4 kmh SE 6.9 mph11.1 kmh 28.91 in979.0 mb - 0.02 in0.5 mm 0.04 in1.0 mm
04:10 AM 33.5°F0.8°C 31.7°F-0.2°C 93% 4.6 mph SSE7.4 kmh SSE 6.9 mph11.1 kmh 28.91 in979.0 mb - 0.02 in0.5 mm 0.04 in1.0 mm
04:15 AM 33.6°F0.9°C 31.7°F-0.2°C 93% 5.8 mph SSE9.3 kmh SSE 6.9 mph11.1 kmh 28.91 in979.0 mb - 0.02 in0.5 mm 0.04 in1.0 mm
04:20 AM 33.6°F0.9°C 31.8°F-0.1°C 93% 5.8 mph SSE9.3 kmh SSE 9.2 mph14.8 kmh 28.91 in979.0 mb - 0.02 in0.5 mm 0.04 in1.0 mm
04:25 AM 33.6°F0.9°C 31.8°F-0.1°C 93% 5.8 mph S9.3 kmh S 6.9 mph11.1 kmh 28.91 in979.0 mb - 0.02 in0.5 mm 0.04 in1.0 mm
04:30 AM 33.7°F0.9°C 31.8°F-0.1°C 93% 5.8 mph SSE9.3 kmh SSE 6.9 mph11.1 kmh 28.91 in979.0 mb - 0.02 in0.5 mm 0.05 in1.3 mm
04:35 AM 33.7°F0.9°C 31.9°F-0.1°C 93% 5.8 mph SSE9.3 kmh SSE 9.2 mph14.8 kmh 28.91 in979.0 mb - 0.02 in0.5 mm 0.05 in1.3 mm
04:40 AM 33.7°F0.9°C 31.9°F-0.1°C 93% 4.6 mph SSE7.4 kmh SSE 6.9 mph11.1 kmh 28.91 in979.0 mb - 0.02 in0.5 mm 0.05 in1.3 mm
04:45 AM 33.8°F1.0°C 32.0°F0.0°C 93% 4.6 mph SSE7.4 kmh SSE 5.8 mph9.3 kmh 28.90 in978.7 mb - 0.02 in0.5 mm 0.05 in1.3 mm
04:50 AM 33.8°F1.0°C 32.0°F0.0°C 93% 6.9 mph SSE11.1 kmh SSE 11.5 mph18.5 kmh 28.90 in978.7 mb - 0.02 in0.5 mm 0.05 in1.3 mm
04:55 AM 33.9°F1.1°C 32.1°F0.1°C 93% 4.6 mph SSE7.4 kmh SSE 10.4 mph16.7 kmh 28.89 in978.3 mb - 0.02 in0.5 mm 0.05 in1.3 mm
05:00 AM 33.9°F1.1°C 32.1°F0.1°C 93% 6.9 mph S11.1 kmh S 11.5 mph18.5 kmh 28.89 in978.3 mb - 0.02 in0.5 mm 0.06 in1.5 mm
05:10 AM 34.0°F1.1°C 32.2°F0.1°C 93% 4.6 mph SSE7.4 kmh SSE 9.2 mph14.8 kmh 28.89 in978.3 mb - 0.02 in0.5 mm 0.06 in1.5 mm
05:15 AM 34.0°F1.1°C 32.2°F0.1°C 93% 5.8 mph SSE9.3 kmh SSE 6.9 mph11.1 kmh 28.89 in978.3 mb - 0.02 in0.5 mm 0.06 in1.5 mm
05:20 AM 34.1°F1.2°C 32.3°F0.2°C 93% 5.8 mph SSE9.3 kmh SSE 9.2 mph14.8 kmh 28.89 in978.3 mb - 0.02 in0.5 mm 0.06 in1.5 mm
05:25 AM 34.2°F1.2°C 32.4°F0.2°C 93% 6.9 mph S11.1 kmh S 10.4 mph16.7 kmh 28.89 in978.3 mb - 0.02 in0.5 mm 0.06 in1.5 mm
05:30 AM 34.2°F1.2°C 32.4°F0.2°C 93% 4.6 mph SSE7.4 kmh SSE 6.9 mph11.1 kmh 28.89 in978.3 mb - 0.02 in0.5 mm 0.06 in1.5 mm
05:35 AM 34.3°F1.3°C 32.5°F0.3°C 93% 4.6 mph SSE7.4 kmh SSE 9.2 mph14.8 kmh 28.89 in978.3 mb - 0.02 in0.5 mm 0.06 in1.5 mm
05:40 AM 34.4°F1.3°C 32.6°F0.3°C 93% 4.6 mph SSE7.4 kmh SSE 6.9 mph11.1 kmh 28.89 in978.3 mb - 0.02 in0.5 mm 0.06 in1.5 mm
05:45 AM 34.5°F1.4°C 32.7°F0.4°C 93% 6.9 mph SSE11.1 kmh SSE 10.4 mph16.7 kmh 28.89 in978.3 mb - 0.02 in0.5 mm 0.06 in1.5 mm
05:50 AM 34.6°F1.4°C 32.8°F0.4°C 93% 4.6 mph SSE7.4 kmh SSE 5.8 mph9.3 kmh 28.88 in978.0 mb - 0.02 in0.5 mm 0.06 in1.5 mm
05:55 AM 34.6°F1.4°C 32.8°F0.4°C 93% 4.6 mph S7.4 kmh S 8.1 mph13.0 kmh 28.88 in978.0 mb - 0.02 in0.5 mm 0.06 in1.5 mm
06:00 AM 34.8°F1.6°C 32.9°F0.5°C 93% 5.8 mph S9.3 kmh S 9.2 mph14.8 kmh 28.88 in978.0 mb - 0.02 in0.5 mm 0.07 in1.8 mm
06:10 AM 35.1°F1.7°C 33.3°F0.7°C 93% 4.6 mph SSE7.4 kmh SSE 6.9 mph11.1 kmh 28.88 in978.0 mb - 0.02 in0.5 mm 0.07 in1.8 mm
06:15 AM 35.2°F1.8°C 33.4°F0.8°C 93% 3.5 mph S5.6 kmh S 9.2 mph14.8 kmh 28.88 in978.0 mb - 0.02 in0.5 mm 0.07 in1.8 mm
06:20 AM 35.4°F1.9°C 33.6°F0.9°C 93% 3.5 mph S5.6 kmh S 5.8 mph9.3 kmh 28.88 in978.0 mb - 0.02 in0.5 mm 0.07 in1.8 mm
06:25 AM 35.5°F1.9°C 33.9°F1.1°C 94% 4.6 mph SSE7.4 kmh SSE 6.9 mph11.1 kmh 28.88 in978.0 mb - 0.02 in0.5 mm 0.07 in1.8 mm
06:30 AM 35.6°F2.0°C 34.0°F1.1°C 94% 3.5 mph S5.6 kmh S 5.8 mph9.3 kmh 28.87 in977.7 mb - 0.01 in0.3 mm 0.07 in1.8 mm
06:35 AM 35.8°F2.1°C 34.2°F1.2°C 94% 4.6 mph SSE7.4 kmh SSE 5.8 mph9.3 kmh 28.87 in977.7 mb - 0.02 in0.5 mm 0.08 in2.0 mm
06:40 AM 36.0°F2.2°C 34.2°F1.2°C 93% 4.6 mph S7.4 kmh S 5.8 mph9.3 kmh 28.87 in977.7 mb - 0.02 in0.5 mm 0.08 in2.0 mm
06:45 AM 36.1°F2.3°C 34.5°F1.4°C 94% 4.6 mph SSE7.4 kmh SSE 6.9 mph11.1 kmh 28.87 in977.7 mb - 0.02 in0.5 mm 0.08 in2.0 mm
06:50 AM 36.3°F2.4°C 34.7°F1.5°C 94% 3.5 mph S5.6 kmh S 3.5 mph5.6 kmh 28.87 in977.7 mb - 0.02 in0.5 mm 0.08 in2.0 mm
06:55 AM 36.4°F2.4°C 34.8°F1.6°C 94% 5.8 mph SSE9.3 kmh SSE 6.9 mph11.1 kmh 28.87 in977.7 mb - 0.02 in0.5 mm 0.08 in2.0 mm
07:00 AM 36.5°F2.5°C 34.9°F1.6°C 94% 4.6 mph S7.4 kmh S 10.4 mph16.7 kmh 28.87 in977.7 mb - 0.01 in0.3 mm 0.08 in2.0 mm
07:10 AM 37.0°F2.8°C 35.4°F1.9°C 94% 5.8 mph S9.3 kmh S 8.1 mph13.0 kmh 28.87 in977.7 mb - 0.01 in0.3 mm 0.08 in2.0 mm
07:15 AM 37.1°F2.8°C 35.5°F1.9°C 94% 6.9 mph S11.1 kmh S 10.4 mph16.7 kmh 28.87 in977.7 mb - 0.01 in0.3 mm 0.08 in2.0 mm
07:20 AM 37.3°F2.9°C 35.7°F2.1°C 94% 5.8 mph S9.3 kmh S 10.4 mph16.7 kmh 28.87 in977.7 mb - 0.01 in0.3 mm 0.08 in2.0 mm
07:25 AM 37.4°F3.0°C 35.8°F2.1°C 94% 4.6 mph S7.4 kmh S 9.2 mph14.8 kmh 28.87 in977.7 mb - 0.01 in0.3 mm 0.08 in2.0 mm
07:30 AM 37.6°F3.1°C 36.0°F2.2°C 94% 5.8 mph S9.3 kmh S 8.1 mph13.0 kmh 28.86 in977.3 mb - 0.01 in0.3 mm 0.08 in2.0 mm
07:35 AM 37.7°F3.2°C 36.1°F2.3°C 94% 4.6 mph S7.4 kmh S 10.4 mph16.7 kmh 28.86 in977.3 mb - 0.00 in0.0 mm 0.08 in2.0 mm
07:40 AM 37.9°F3.3°C 36.3°F2.4°C 94% 5.8 mph S9.3 kmh S 8.1 mph13.0 kmh 28.86 in977.3 mb - 0.00 in0.0 mm 0.08 in2.0 mm
07:45 AM 38.0°F3.3°C 36.4°F2.4°C 94% 5.8 mph SSE9.3 kmh SSE 9.2 mph14.8 kmh 28.86 in977.3 mb - 0.00 in0.0 mm 0.08 in2.0 mm
07:50 AM 38.1°F3.4°C 36.5°F2.5°C 94% 4.6 mph S7.4 kmh S 10.4 mph16.7 kmh 28.86 in977.3 mb - 0.00 in0.0 mm 0.08 in2.0 mm
07:55 AM 38.2°F3.4°C 36.6°F2.6°C 94% 4.6 mph S7.4 kmh S 6.9 mph11.1 kmh 28.86 in977.3 mb - 0.00 in0.0 mm 0.08 in2.0 mm
08:00 AM 38.3°F3.5°C 36.7°F2.6°C 94% 4.6 mph SSE7.4 kmh SSE 8.1 mph13.0 kmh 28.87 in977.7 mb - 0.00 in0.0 mm 0.08 in2.0 mm
08:10 AM 38.5°F3.6°C 36.9°F2.7°C 94% 5.8 mph S9.3 kmh S 8.1 mph13.0 kmh 28.87 in977.7 mb - 0.00 in0.0 mm 0.08 in2.0 mm
08:15 AM 38.7°F3.7°C 37.1°F2.8°C 94% 5.8 mph S9.3 kmh S 11.5 mph18.5 kmh 28.87 in977.7 mb - 0.00 in0.0 mm 0.08 in2.0 mm
08:20 AM 38.7°F3.7°C 37.2°F2.9°C 94% 6.9 mph S11.1 kmh S 11.5 mph18.5 kmh 28.88 in978.0 mb - 0.00 in0.0 mm 0.08 in2.0 mm
08:25 AM 38.9°F3.8°C 37.3°F2.9°C 94% 6.9 mph S11.1 kmh S 10.4 mph16.7 kmh 28.88 in978.0 mb - 0.00 in0.0 mm 0.08 in2.0 mm
08:30 AM 39.0°F3.9°C 37.4°F3.0°C 94% 4.6 mph S7.4 kmh S 9.2 mph14.8 kmh 28.88 in978.0 mb - 0.00 in0.0 mm 0.08 in2.0 mm
08:35 AM 39.0°F3.9°C 37.4°F3.0°C 94% 6.9 mph SSW11.1 kmh SSW 10.4 mph16.7 kmh 28.88 in978.0 mb - 0.00 in0.0 mm 0.08 in2.0 mm
08:40 AM 39.2°F4.0°C 37.6°F3.1°C 94% 8.1 mph SSW13.0 kmh SSW 11.5 mph18.5 kmh 28.88 in978.0 mb - 0.00 in0.0 mm 0.08 in2.0 mm
08:45 AM 39.2°F4.0°C 37.6°F3.1°C 94% 9.2 mph S14.8 kmh S 11.5 mph18.5 kmh 28.88 in978.0 mb - 0.00 in0.0 mm 0.08 in2.0 mm
08:50 AM 39.3°F4.1°C 37.7°F3.2°C 94% 6.9 mph S11.1 kmh S 11.5 mph18.5 kmh 28.88 in978.0 mb - 0.01 in0.3 mm 0.09 in2.3 mm
08:55 AM 39.4°F4.1°C 37.8°F3.2°C 94% 4.6 mph S7.4 kmh S 9.2 mph14.8 kmh 28.88 in978.0 mb - 0.01 in0.3 mm 0.09 in2.3 mm
09:00 AM 39.4°F4.1°C 37.8°F3.2°C 94% 6.9 mph S11.1 kmh S 11.5 mph18.5 kmh 28.88 in978.0 mb - 0.01 in0.3 mm 0.09 in2.3 mm
09:10 AM 39.5°F4.2°C 37.9°F3.3°C 94% 8.1 mph S13.0 kmh S 15.0 mph24.1 kmh 28.89 in978.3 mb - 0.01 in0.3 mm 0.09 in2.3 mm
09:15 AM 39.6°F4.2°C 38.0°F3.3°C 94% 8.1 mph S13.0 kmh S 10.4 mph16.7 kmh 28.89 in978.3 mb - 0.01 in0.3 mm 0.09 in2.3 mm
09:20 AM 39.6°F4.2°C 38.0°F3.3°C 94% 6.9 mph SSW11.1 kmh SSW 11.5 mph18.5 kmh 28.89 in978.3 mb - 0.01 in0.3 mm 0.09 in2.3 mm
09:25 AM 39.6°F4.2°C 38.0°F3.3°C 94% 6.9 mph S11.1 kmh S 10.4 mph16.7 kmh 28.88 in978.0 mb - 0.01 in0.3 mm 0.09 in2.3 mm
09:30 AM 39.6°F4.2°C 38.0°F3.3°C 94% 9.2 mph S14.8 kmh S 11.5 mph18.5 kmh 28.89 in978.3 mb - 0.01 in0.3 mm 0.09 in2.3 mm
09:35 AM 39.7°F4.3°C 38.1°F3.4°C 94% 8.1 mph SSW13.0 kmh SSW 10.4 mph16.7 kmh 28.89 in978.3 mb - 0.01 in0.3 mm 0.09 in2.3 mm
09:40 AM 39.7°F4.3°C 38.1°F3.4°C 94% 8.1 mph SSW13.0 kmh SSW 11.5 mph18.5 kmh 28.89 in978.3 mb - 0.01 in0.3 mm 0.09 in2.3 mm
09:45 AM 39.8°F4.3°C 38.2°F3.4°C 94% 8.1 mph S13.0 kmh S 10.4 mph16.7 kmh 28.89 in978.3 mb - 0.01 in0.3 mm 0.09 in2.3 mm
09:50 AM 39.8°F4.3°C 38.2°F3.4°C 94% 8.1 mph S13.0 kmh S 11.5 mph18.5 kmh 28.89 in978.3 mb - 0.01 in0.3 mm 0.09 in2.3 mm
09:55 AM 39.9°F4.4°C 38.3°F3.5°C 94% 8.1 mph S13.0 kmh S 11.5 mph18.5 kmh 28.89 in978.3 mb - 0.00 in0.0 mm 0.09 in2.3 mm
10:00 AM 39.9°F4.4°C 38.3°F3.5°C 94% 10.4 mph SSW16.7 kmh SSW 16.1 mph25.9 kmh 28.89 in978.3 mb - 0.00 in0.0 mm 0.09 in2.3 mm
10:10 AM 40.1°F4.5°C 38.5°F3.6°C 94% 10.4 mph S16.7 kmh S 16.1 mph25.9 kmh 28.88 in978.0 mb - 0.00 in0.0 mm 0.09 in2.3 mm
10:15 AM 40.1°F4.5°C 38.5°F3.6°C 94% 8.1 mph SSW13.0 kmh SSW 11.5 mph18.5 kmh 28.89 in978.3 mb - 0.00 in0.0 mm 0.09 in2.3 mm
10:20 AM 40.1°F4.5°C 38.2°F3.4°C 93% 6.9 mph S11.1 kmh S 11.5 mph18.5 kmh 28.89 in978.3 mb - 0.00 in0.0 mm 0.09 in2.3 mm
10:25 AM 40.1°F4.5°C 38.3°F3.5°C 93% 5.8 mph SSW9.3 kmh SSW 9.2 mph14.8 kmh 28.89 in978.3 mb - 0.00 in0.0 mm 0.09 in2.3 mm
10:30 AM 40.1°F4.5°C 38.2°F3.4°C 93% 6.9 mph SW11.1 kmh SW 11.5 mph18.5 kmh 28.89 in978.3 mb - 0.00 in0.0 mm 0.09 in2.3 mm
10:35 AM 40.1°F4.5°C 38.2°F3.4°C 93% 6.9 mph SW11.1 kmh SW 12.7 mph20.4 kmh 28.89 in978.3 mb - 0.01 in0.3 mm 0.09 in2.3 mm
10:40 AM 40.0°F4.4°C 38.1°F3.4°C 93% 13.8 mph SW22.2 kmh SW 18.4 mph29.6 kmh 28.89 in978.3 mb - 0.01 in0.3 mm 0.09 in2.3 mm
10:45 AM 39.4°F4.1°C 37.5°F3.1°C 93% 13.8 mph SW22.2 kmh SW 18.4 mph29.6 kmh 28.89 in978.3 mb - 0.02 in0.5 mm 0.11 in2.8 mm
10:50 AM 39.2°F4.0°C 37.1°F2.8°C 92% 9.2 mph SSW14.8 kmh SSW 10.4 mph16.7 kmh 28.89 in978.3 mb - 0.02 in0.5 mm 0.11 in2.8 mm
10:55 AM 39.2°F4.0°C 37.3°F2.9°C 93% 10.4 mph S16.7 kmh S 16.1 mph25.9 kmh 28.89 in978.3 mb - 0.03 in0.8 mm 0.12 in3.0 mm
11:00 AM 39.3°F4.1°C 37.5°F3.1°C 93% 6.9 mph S11.1 kmh S 9.2 mph14.8 kmh 28.89 in978.3 mb - 0.03 in0.8 mm 0.12 in3.0 mm
11:10 AM 39.6°F4.2°C 37.8°F3.2°C 93% 8.1 mph SSW13.0 kmh SSW 13.8 mph22.2 kmh 28.89 in978.3 mb - 0.03 in0.8 mm 0.12 in3.0 mm
11:15 AM 39.8°F4.3°C 37.9°F3.3°C 93% 6.9 mph SSW11.1 kmh SSW 10.4 mph16.7 kmh 28.89 in978.3 mb - 0.04 in1.0 mm 0.13 in3.3 mm
11:20 AM 39.9°F4.4°C 38.1°F3.4°C 93% 5.8 mph SSW9.3 kmh SSW 10.4 mph16.7 kmh 28.89 in978.3 mb - 0.04 in1.0 mm 0.13 in3.3 mm
11:25 AM 40.1°F4.5°C 38.2°F3.4°C 93% 9.2 mph SSW14.8 kmh SSW 18.4 mph29.6 kmh 28.89 in978.3 mb - 0.05 in1.3 mm 0.13 in3.3 mm
11:30 AM 40.2°F4.6°C 38.1°F3.4°C 92% 11.5 mph WSW18.5 kmh WSW 12.7 mph20.4 kmh 28.89 in978.3 mb - 0.05 in1.3 mm 0.13 in3.3 mm
11:35 AM 40.1°F4.5°C 38.0°F3.3°C 92% 9.2 mph WSW14.8 kmh WSW 11.5 mph18.5 kmh 28.89 in978.3 mb - 0.05 in1.3 mm 0.14 in3.6 mm
11:40 AM 40.1°F4.5°C 38.0°F3.3°C 92% 6.9 mph SW11.1 kmh SW 11.5 mph18.5 kmh 28.89 in978.3 mb - 0.05 in1.3 mm 0.14 in3.6 mm
11:45 AM 40.1°F4.5°C 38.0°F3.3°C 92% 6.9 mph SW11.1 kmh SW 13.8 mph22.2 kmh 28.89 in978.3 mb - 0.05 in1.3 mm 0.15 in3.8 mm
11:50 AM 40.2°F4.6°C 38.1°F3.4°C 92% 11.5 mph SW18.5 kmh SW 15.0 mph24.1 kmh 28.89 in978.3 mb - 0.04 in1.0 mm 0.15 in3.8 mm
11:55 AM 40.1°F4.5°C 38.0°F3.3°C 92% 15.0 mph SW24.1 kmh SW 18.4 mph29.6 kmh 28.90 in978.7 mb - 0.04 in1.0 mm 0.16 in4.1 mm
12:00 PM 39.9°F4.4°C 37.5°F3.1°C 91% 9.2 mph SW14.8 kmh SW 11.5 mph18.5 kmh 28.90 in978.7 mb - 0.05 in1.3 mm 0.17 in4.3 mm
12:10 PM 40.0°F4.4°C 37.6°F3.1°C 91% 10.4 mph SW16.7 kmh SW 11.5 mph18.5 kmh 28.90 in978.7 mb - 0.05 in1.3 mm 0.17 in4.3 mm
12:15 PM 40.0°F4.4°C 37.6°F3.1°C 91% 8.1 mph SW13.0 kmh SW 8.1 mph13.0 kmh 28.90 in978.7 mb - 0.04 in1.0 mm 0.17 in4.3 mm
12:20 PM 40.0°F4.4°C 37.6°F3.1°C 91% 9.2 mph SSW14.8 kmh SSW 12.7 mph20.4 kmh 28.91 in979.0 mb - 0.04 in1.0 mm 0.17 in4.3 mm
12:25 PM 40.1°F4.5°C 37.7°F3.2°C 91% 8.1 mph SSW13.0 kmh SSW 10.4 mph16.7 kmh 28.91 in979.0 mb - 0.03 in0.8 mm 0.17 in4.3 mm
12:30 PM 40.1°F4.5°C 37.7°F3.2°C 91% 9.2 mph S14.8 kmh S 11.5 mph18.5 kmh 28.90 in978.7 mb - 0.03 in0.8 mm 0.17 in4.3 mm
12:35 PM 40.1°F4.5°C 37.7°F3.2°C 91% 8.1 mph SSW13.0 kmh SSW 11.5 mph18.5 kmh 28.90 in978.7 mb - 0.02 in0.5 mm 0.17 in4.3 mm
12:40 PM 40.1°F4.5°C 37.7°F3.2°C 91% 6.9 mph S11.1 kmh S 9.2 mph14.8 kmh 28.90 in978.7 mb - 0.02 in0.5 mm 0.17 in4.3 mm
12:45 PM 40.1°F4.5°C 37.7°F3.2°C 91% 8.1 mph SSW13.0 kmh SSW 11.5 mph18.5 kmh 28.90 in978.7 mb - 0.02 in0.5 mm 0.17 in4.3 mm
12:50 PM 40.1°F4.5°C 37.7°F3.2°C 91% 9.2 mph S14.8 kmh S 11.5 mph18.5 kmh 28.90 in978.7 mb - 0.02 in0.5 mm 0.17 in4.3 mm
12:55 PM 40.2°F4.6°C 37.7°F3.2°C 91% 6.9 mph SSW11.1 kmh SSW 9.2 mph14.8 kmh 28.90 in978.7 mb - 0.01 in0.3 mm 0.17 in4.3 mm
01:00 PM 40.2°F4.6°C 37.7°F3.2°C 91% 6.9 mph SSW11.1 kmh SSW 11.5 mph18.5 kmh 28.90 in978.7 mb - 0.00 in0.0 mm 0.17 in4.3 mm
01:10 PM 40.1°F4.5°C 37.7°F3.2°C 91% 8.1 mph SW13.0 kmh SW 10.4 mph16.7 kmh 28.92 in979.3 mb - 0.02 in0.5 mm 0.19 in4.8 mm
01:15 PM 40.1°F4.5°C 37.7°F3.2°C 91% 8.1 mph SSW13.0 kmh SSW 12.7 mph20.4 kmh 28.91 in979.0 mb - 0.03 in0.8 mm 0.20 in5.1 mm
01:20 PM 40.1°F4.5°C 37.7°F3.2°C 91% 11.5 mph SSW18.5 kmh SSW 17.3 mph27.8 kmh 28.91 in979.0 mb - 0.03 in0.8 mm 0.20 in5.1 mm
01:25 PM 40.3°F4.6°C 37.9°F3.3°C 91% 11.5 mph SW18.5 kmh SW 13.8 mph22.2 kmh 28.91 in979.0 mb - 0.04 in1.0 mm 0.21 in5.3 mm
01:30 PM 40.7°F4.8°C 38.3°F3.5°C 91% 8.1 mph SSW13.0 kmh SSW 10.4 mph16.7 kmh 28.91 in979.0 mb - 0.04 in1.0 mm 0.21 in5.3 mm
01:35 PM 40.8°F4.9°C 38.4°F3.6°C 91% 6.9 mph SSW11.1 kmh SSW 9.2 mph14.8 kmh 28.92 in979.3 mb - 0.04 in1.0 mm 0.21 in5.3 mm
01:40 PM 40.7°F4.8°C 38.3°F3.5°C 91% 6.9 mph SSW11.1 kmh SSW 10.4 mph16.7 kmh 28.91 in979.0 mb - 0.04 in1.0 mm 0.21 in5.3 mm
01:45 PM 40.8°F4.9°C 38.4°F3.6°C 91% 9.2 mph SSW14.8 kmh SSW 11.5 mph18.5 kmh 28.91 in979.0 mb - 0.04 in1.0 mm 0.21 in5.3 mm
01:50 PM 41.0°F5.0°C 38.6°F3.7°C 91% 8.1 mph SW13.0 kmh SW 10.4 mph16.7 kmh 28.91 in979.0 mb - 0.04 in1.0 mm 0.21 in5.3 mm
01:55 PM 41.2°F5.1°C 38.8°F3.8°C 91% 8.1 mph SW13.0 kmh SW 12.7 mph20.4 kmh 28.91 in979.0 mb - 0.04 in1.0 mm 0.21 in5.3 mm
02:00 PM 41.4°F5.2°C 39.0°F3.9°C 91% 9.2 mph SW14.8 kmh SW 13.8 mph22.2 kmh 28.91 in979.0 mb - 0.04 in1.0 mm 0.21 in5.3 mm
02:10 PM 41.8°F5.4°C 39.1°F3.9°C 90% 13.8 mph SW22.2 kmh SW 17.3 mph27.8 kmh 28.92 in979.3 mb - 0.02 in0.5 mm 0.21 in5.3 mm
02:15 PM 41.9°F5.5°C 38.9°F3.8°C 89% 12.7 mph SW20.4 kmh SW 15.0 mph24.1 kmh 28.92 in979.3 mb - 0.01 in0.3 mm 0.21 in5.3 mm
02:20 PM 42.0°F5.6°C 39.0°F3.9°C 89% 15.0 mph SW24.1 kmh SW 19.6 mph31.5 kmh 28.92 in979.3 mb - 0.01 in0.3 mm 0.21 in5.3 mm
02:25 PM 42.0°F5.6°C 39.0°F3.9°C 89% 13.8 mph SW22.2 kmh SW 21.9 mph35.2 kmh 28.91 in979.0 mb - 0.00 in0.0 mm 0.21 in5.3 mm
02:30 PM 41.9°F5.5°C 38.9°F3.8°C 89% 10.4 mph WSW16.7 kmh WSW 15.0 mph24.1 kmh 28.92 in979.3 mb - 0.00 in0.0 mm 0.21 in5.3 mm
02:35 PM 41.9°F5.5°C 38.9°F3.8°C 89% 12.7 mph SW20.4 kmh SW 13.8 mph22.2 kmh 28.92 in979.3 mb - 0.00 in0.0 mm 0.21 in5.3 mm
02:40 PM 41.9°F5.5°C 38.9°F3.8°C 89% 12.7 mph SW20.4 kmh SW 17.3 mph27.8 kmh 28.93 in979.7 mb - 0.00 in0.0 mm 0.21 in5.3 mm
02:45 PM 41.8°F5.4°C 39.1°F3.9°C 90% 10.4 mph SW16.7 kmh SW 19.6 mph31.5 kmh 28.93 in979.7 mb - 0.01 in0.3 mm 0.21 in5.3 mm
02:50 PM 41.4°F5.2°C 38.4°F3.6°C 89% 13.8 mph SW22.2 kmh SW 18.4 mph29.6 kmh 28.93 in979.7 mb - 0.01 in0.3 mm 0.21 in5.3 mm
02:55 PM 41.2°F5.1°C 38.2°F3.4°C 89% 12.7 mph WSW20.4 kmh WSW 15.0 mph24.1 kmh 28.93 in979.7 mb - 0.01 in0.3 mm 0.21 in5.3 mm
03:00 PM 41.1°F5.1°C 38.1°F3.4°C 89% 12.7 mph SW20.4 kmh SW 15.0 mph24.1 kmh 28.93 in979.7 mb - 0.01 in0.3 mm 0.21 in5.3 mm
03:10 PM 41.0°F5.0°C 38.0°F3.3°C 89% 10.4 mph SW16.7 kmh SW 12.7 mph20.4 kmh 28.93 in979.7 mb - 0.01 in0.3 mm 0.21 in5.3 mm
03:15 PM 40.8°F4.9°C 37.8°F3.2°C 89% 19.6 mph SW31.5 kmh SW 24.2 mph38.9 kmh 28.94 in980.0 mb - 0.01 in0.3 mm 0.21 in5.3 mm
03:20 PM 40.4°F4.7°C 37.4°F3.0°C 89% 13.8 mph WSW22.2 kmh WSW 18.4 mph29.6 kmh 28.94 in980.0 mb - 0.02 in0.5 mm 0.22 in5.6 mm
03:25 PM 40.3°F4.6°C 37.3°F2.9°C 89% 15.0 mph WSW24.1 kmh WSW 19.6 mph31.5 kmh 28.94 in980.0 mb - 0.02 in0.5 mm 0.23 in5.8 mm
03:30 PM 40.1°F4.5°C 37.1°F2.8°C 89% 10.4 mph SW16.7 kmh SW 12.7 mph20.4 kmh 28.94 in980.0 mb - 0.02 in0.5 mm 0.23 in5.8 mm
03:35 PM 40.1°F4.5°C 37.4°F3.0°C 90% 15.0 mph SW24.1 kmh SW 19.6 mph31.5 kmh 28.95 in980.4 mb - 0.02 in0.5 mm 0.23 in5.8 mm
03:40 PM 40.1°F4.5°C 37.4°F3.0°C 90% 12.7 mph WSW20.4 kmh WSW 17.3 mph27.8 kmh 28.95 in980.4 mb - 0.03 in0.8 mm 0.24 in6.1 mm
03:45 PM 40.0°F4.4°C 37.3°F2.9°C 90% 13.8 mph WSW22.2 kmh WSW 18.4 mph29.6 kmh 28.95 in980.4 mb - 0.04 in1.0 mm 0.24 in6.1 mm
03:50 PM 39.9°F4.4°C 37.2°F2.9°C 90% 18.4 mph SW29.6 kmh SW 25.3 mph40.7 kmh 28.94 in980.0 mb - 0.03 in0.8 mm 0.24 in6.1 mm
03:55 PM 40.1°F4.5°C 37.4°F3.0°C 90% 12.7 mph SW20.4 kmh SW 18.4 mph29.6 kmh 28.95 in980.4 mb - 0.03 in0.8 mm 0.24 in6.1 mm
04:00 PM 40.1°F4.5°C 37.4°F3.0°C 90% 15.0 mph WSW24.1 kmh WSW 19.6 mph31.5 kmh 28.95 in980.4 mb - 0.04 in1.0 mm 0.25 in6.4 mm
04:10 PM 40.0°F4.4°C 37.3°F2.9°C 90% 13.8 mph WSW22.2 kmh WSW 19.6 mph31.5 kmh 28.96 in980.7 mb - 0.06 in1.5 mm 0.27 in6.9 mm
04:15 PM 39.8°F4.3°C 37.1°F2.8°C 90% 13.8 mph WSW22.2 kmh WSW 18.4 mph29.6 kmh 28.97 in981.0 mb - 0.06 in1.5 mm 0.28 in7.1 mm
04:20 PM 39.8°F4.3°C 37.1°F2.8°C 90% 15.0 mph WSW24.1 kmh WSW 19.6 mph31.5 kmh 28.97 in981.0 mb - 0.07 in1.8 mm 0.29 in7.4 mm
04:25 PM 39.8°F4.3°C 37.1°F2.8°C 90% 13.8 mph SW22.2 kmh SW 23.0 mph37.0 kmh 28.97 in981.0 mb - 0.07 in1.8 mm 0.30 in7.6 mm
04:30 PM 39.8°F4.3°C 37.1°F2.8°C 90% 18.4 mph WSW29.6 kmh WSW 21.9 mph35.2 kmh 28.97 in981.0 mb - 0.09 in2.3 mm 0.32 in8.1 mm
04:35 PM 39.9°F4.4°C 37.2°F2.9°C 90% 16.1 mph WSW25.9 kmh WSW 20.7 mph33.3 kmh 28.97 in981.0 mb - 0.09 in2.3 mm 0.32 in8.1 mm
04:40 PM 40.0°F4.4°C 37.3°F2.9°C 90% 17.3 mph SW27.8 kmh SW 19.6 mph31.5 kmh 28.97 in981.0 mb - 0.09 in2.3 mm 0.32 in8.1 mm
04:45 PM 40.2°F4.6°C 37.2°F2.9°C 89% 17.3 mph SW27.8 kmh SW 21.9 mph35.2 kmh 28.98 in981.4 mb - 0.08 in2.0 mm 0.32 in8.1 mm
04:50 PM 40.3°F4.6°C 37.3°F2.9°C 89% 13.8 mph SW22.2 kmh SW 15.0 mph24.1 kmh 28.98 in981.4 mb - 0.09 in2.3 mm 0.33 in8.4 mm
04:55 PM 40.4°F4.7°C 37.4°F3.0°C 89% 17.3 mph WSW27.8 kmh WSW 26.5 mph42.6 kmh 28.99 in981.7 mb - 0.09 in2.3 mm 0.34 in8.6 mm
05:00 PM 40.5°F4.7°C 37.5°F3.1°C 89% 13.8 mph WSW22.2 kmh WSW 18.4 mph29.6 kmh 28.99 in981.7 mb - 0.09 in2.3 mm 0.35 in8.9 mm
05:10 PM 40.4°F4.7°C 37.7°F3.2°C 90% 12.7 mph WSW20.4 kmh WSW 16.1 mph25.9 kmh 28.99 in981.7 mb - 0.09 in2.3 mm 0.36 in9.1 mm
05:15 PM 40.4°F4.7°C 37.7°F3.2°C 90% 12.7 mph SW20.4 kmh SW 15.0 mph24.1 kmh 28.99 in981.7 mb - 0.09 in2.3 mm 0.37 in9.4 mm
05:20 PM 40.4°F4.7°C 37.7°F3.2°C 90% 12.7 mph WSW20.4 kmh WSW 15.0 mph24.1 kmh 29.00 in982.1 mb - 0.08 in2.0 mm 0.37 in9.4 mm
05:25 PM 40.6°F4.8°C 37.9°F3.3°C 90% 12.7 mph WSW20.4 kmh WSW 15.0 mph24.1 kmh 29.00 in982.1 mb - 0.08 in2.0 mm 0.38 in9.7 mm
05:30 PM 40.6°F4.8°C 37.9°F3.3°C 90% 15.0 mph WSW24.1 kmh WSW 19.6 mph31.5 kmh 28.99 in981.7 mb - 0.07 in1.8 mm 0.39 in9.9 mm
05:35 PM 40.7°F4.8°C 38.0°F3.3°C 90% 12.7 mph SW20.4 kmh SW 17.3 mph27.8 kmh 28.99 in981.7 mb - 0.07 in1.8 mm 0.39 in9.9 mm
05:40 PM 40.8°F4.9°C 38.1°F3.4°C 90% 12.7 mph SW20.4 kmh SW 18.4 mph29.6 kmh 29.00 in982.1 mb - 0.07 in1.8 mm 0.39 in9.9 mm
05:45 PM 40.8°F4.9°C 38.1°F3.4°C 90% 10.4 mph SW16.7 kmh SW 11.5 mph18.5 kmh 29.00 in982.1 mb - 0.07 in1.8 mm 0.39 in9.9 mm
05:50 PM 40.7°F4.8°C 38.0°F3.3°C 90% 8.1 mph SW13.0 kmh SW 11.5 mph18.5 kmh 29.00 in982.1 mb - 0.06 in1.5 mm 0.39 in9.9 mm
05:55 PM 40.7°F4.8°C 38.0°F3.3°C 90% 10.4 mph SW16.7 kmh SW 13.8 mph22.2 kmh 29.00 in982.1 mb - 0.06 in1.5 mm 0.39 in9.9 mm
06:00 PM 40.8°F4.9°C 38.1°F3.4°C 90% 12.7 mph SW20.4 kmh SW 15.0 mph24.1 kmh 29.00 in982.1 mb - 0.06 in1.5 mm 0.40 in10.2 mm
06:10 PM 40.9°F4.9°C 38.2°F3.4°C 90% 11.5 mph SW18.5 kmh SW 17.3 mph27.8 kmh 29.01 in982.4 mb - 0.04 in1.0 mm 0.40 in10.2 mm
06:15 PM 41.0°F5.0°C 38.3°F3.5°C 90% 10.4 mph SW16.7 kmh SW 16.1 mph25.9 kmh 29.01 in982.4 mb - 0.03 in0.8 mm 0.40 in10.2 mm
06:20 PM 41.1°F5.1°C 38.1°F3.4°C 89% 11.5 mph SW18.5 kmh SW 12.7 mph20.4 kmh 29.01 in982.4 mb - 0.03 in0.8 mm 0.40 in10.2 mm
06:25 PM 41.0°F5.0°C 38.0°F3.3°C 89% 11.5 mph SW18.5 kmh SW 17.3 mph27.8 kmh 29.01 in982.4 mb - 0.02 in0.5 mm 0.40 in10.2 mm
06:30 PM 40.9°F4.9°C 37.6°F3.1°C 88% 12.7 mph WSW20.4 kmh WSW 18.4 mph29.6 kmh 29.01 in982.4 mb - 0.02 in0.5 mm 0.40 in10.2 mm
06:35 PM 40.9°F4.9°C 37.6°F3.1°C 88% 10.4 mph SW16.7 kmh SW 15.0 mph24.1 kmh 29.01 in982.4 mb - 0.01 in0.3 mm 0.40 in10.2 mm
06:40 PM 40.8°F4.9°C 37.5°F3.1°C 88% 13.8 mph SW22.2 kmh SW 18.4 mph29.6 kmh 29.02 in982.7 mb - 0.01 in0.3 mm 0.40 in10.2 mm
06:45 PM 40.8°F4.9°C 37.5°F3.1°C 88% 10.4 mph SW16.7 kmh SW 16.1 mph25.9 kmh 29.02 in982.7 mb - 0.01 in0.3 mm 0.40 in10.2 mm
06:50 PM 40.8°F4.9°C 37.5°F3.1°C 88% 12.7 mph SW20.4 kmh SW 15.0 mph24.1 kmh 29.02 in982.7 mb - 0.01 in0.3 mm 0.40 in10.2 mm
06:55 PM 40.9°F4.9°C 37.6°F3.1°C 88% 13.8 mph WSW22.2 kmh WSW 19.6 mph31.5 kmh 29.02 in982.7 mb - 0.01 in0.3 mm 0.40 in10.2 mm
07:00 PM 41.0°F5.0°C 38.0°F3.3°C 89% 13.8 mph SW22.2 kmh SW 18.4 mph29.6 kmh 29.03 in983.1 mb - 0.00 in0.0 mm 0.40 in10.2 mm
07:10 PM 41.2°F5.1°C 37.9°F3.3°C 88% 12.7 mph SW20.4 kmh SW 20.7 mph33.3 kmh 29.03 in983.1 mb - 0.00 in0.0 mm 0.40 in10.2 mm
07:15 PM 41.4°F5.2°C 38.1°F3.4°C 88% 13.8 mph WSW22.2 kmh WSW 19.6 mph31.5 kmh 29.03 in983.1 mb - 0.00 in0.0 mm 0.40 in10.2 mm
07:20 PM 41.6°F5.3°C 38.0°F3.3°C 87% 17.3 mph SW27.8 kmh SW 20.7 mph33.3 kmh 29.04 in983.4 mb - 0.00 in0.0 mm 0.40 in10.2 mm
07:25 PM 41.6°F5.3°C 38.0°F3.3°C 87% 12.7 mph WSW20.4 kmh WSW 15.0 mph24.1 kmh 29.04 in983.4 mb - 0.00 in0.0 mm 0.40 in10.2 mm
07:30 PM 41.5°F5.3°C 37.9°F3.3°C 87% 15.0 mph WSW24.1 kmh WSW 17.3 mph27.8 kmh 29.04 in983.4 mb - 0.00 in0.0 mm 0.40 in10.2 mm
07:35 PM 41.4°F5.2°C 37.8°F3.2°C 87% 13.8 mph SW22.2 kmh SW 18.4 mph29.6 kmh 29.04 in983.4 mb - 0.00 in0.0 mm 0.40 in10.2 mm
07:40 PM 41.4°F5.2°C 37.8°F3.2°C 87% 10.4 mph SW16.7 kmh SW 11.5 mph18.5 kmh 29.04 in983.4 mb - 0.00 in0.0 mm 0.40 in10.2 mm
07:45 PM 41.3°F5.2°C 37.7°F3.2°C 87% 10.4 mph WSW16.7 kmh WSW 11.5 mph18.5 kmh 29.05 in983.7 mb - 0.00 in0.0 mm 0.40 in10.2 mm
07:50 PM 41.2°F5.1°C 37.6°F3.1°C 87% 11.5 mph SW18.5 kmh SW 12.7 mph20.4 kmh 29.05 in983.7 mb - 0.00 in0.0 mm 0.40 in10.2 mm
07:55 PM 41.2°F5.1°C 37.6°F3.1°C 87% 12.7 mph WSW20.4 kmh WSW 16.1 mph25.9 kmh 29.05 in983.7 mb - 0.00 in0.0 mm 0.40 in10.2 mm
08:00 PM 41.1°F5.1°C 37.5°F3.1°C 87% 12.7 mph SW20.4 kmh SW 15.0 mph24.1 kmh 29.06 in984.1 mb - 0.00 in0.0 mm 0.40 in10.2 mm
08:10 PM 41.2°F5.1°C 37.6°F3.1°C 87% 20.7 mph WSW33.3 kmh WSW 32.2 mph51.8 kmh 29.07 in984.4 mb - 0.00 in0.0 mm 0.40 in10.2 mm
08:15 PM 41.2°F5.1°C 36.8°F2.7°C 84% 13.8 mph WSW22.2 kmh WSW 18.4 mph29.6 kmh 29.07 in984.4 mb - 0.00 in0.0 mm 0.40 in10.2 mm
08:20 PM 41.0°F5.0°C 36.3°F2.4°C 83% 12.7 mph WSW20.4 kmh WSW 16.1 mph25.9 kmh 29.07 in984.4 mb - 0.00 in0.0 mm 0.40 in10.2 mm
08:25 PM 40.9°F4.9°C 36.1°F2.3°C 83% 12.7 mph WSW20.4 kmh WSW 13.8 mph22.2 kmh 29.08 in984.8 mb - 0.00 in0.0 mm 0.40 in10.2 mm
08:30 PM 40.7°F4.8°C 35.9°F2.2°C 83% 11.5 mph WSW18.5 kmh WSW 13.8 mph22.2 kmh 29.08 in984.8 mb - 0.00 in0.0 mm 0.40 in10.2 mm
08:35 PM 40.6°F4.8°C 35.9°F2.2°C 83% 6.9 mph WSW11.1 kmh WSW 11.5 mph18.5 kmh 29.08 in984.8 mb - 0.00 in0.0 mm 0.40 in10.2 mm
08:40 PM 40.4°F4.7°C 35.7°F2.1°C 83% 9.2 mph SW14.8 kmh SW 11.5 mph18.5 kmh 29.08 in984.8 mb - 0.00 in0.0 mm 0.40 in10.2 mm
08:45 PM 40.2°F4.6°C 35.8°F2.1°C 84% 6.9 mph SW11.1 kmh SW 11.5 mph18.5 kmh 29.08 in984.8 mb - 0.00 in0.0 mm 0.40 in10.2 mm
08:50 PM 40.2°F4.6°C 35.8°F2.1°C 84% 6.9 mph SW11.1 kmh SW 9.2 mph14.8 kmh 29.08 in984.8 mb - 0.00 in0.0 mm 0.40 in10.2 mm
08:55 PM 40.3°F4.6°C 36.1°F2.3°C 85% 9.2 mph WSW14.8 kmh WSW 13.8 mph22.2 kmh 29.09 in985.1 mb - 0.00 in0.0 mm 0.40 in10.2 mm
09:00 PM 40.1°F4.5°C 36.3°F2.4°C 86% 15.0 mph WSW24.1 kmh WSW 19.6 mph31.5 kmh 29.10 in985.4 mb - 0.02 in0.5 mm 0.42 in10.7 mm
09:10 PM 40.0°F4.4°C 36.7°F2.6°C 88% 10.4 mph WSW16.7 kmh WSW 12.7 mph20.4 kmh 29.10 in985.4 mb - 0.02 in0.5 mm 0.43 in10.9 mm
09:15 PM 40.0°F4.4°C 36.7°F2.6°C 88% 8.1 mph WSW13.0 kmh WSW 10.4 mph16.7 kmh 29.10 in985.4 mb - 0.02 in0.5 mm 0.43 in10.9 mm
09:20 PM 39.9°F4.4°C 36.6°F2.6°C 88% 9.2 mph WSW14.8 kmh WSW 11.5 mph18.5 kmh 29.10 in985.4 mb - 0.02 in0.5 mm 0.43 in10.9 mm
09:25 PM 39.8°F4.3°C 36.5°F2.5°C 88% 10.4 mph WSW16.7 kmh WSW 13.8 mph22.2 kmh 29.10 in985.4 mb - 0.02 in0.5 mm 0.43 in10.9 mm
09:30 PM 39.7°F4.3°C 36.4°F2.4°C 88% 8.1 mph WSW13.0 kmh WSW 9.2 mph14.8 kmh 29.10 in985.4 mb - 0.02 in0.5 mm 0.43 in10.9 mm
09:35 PM 39.6°F4.2°C 36.3°F2.4°C 88% 6.9 mph SW11.1 kmh SW 9.2 mph14.8 kmh 29.11 in985.8 mb - 0.02 in0.5 mm 0.43 in10.9 mm
09:40 PM 39.5°F4.2°C 36.2°F2.3°C 88% 9.2 mph WSW14.8 kmh WSW 11.5 mph18.5 kmh 29.11 in985.8 mb - 0.02 in0.5 mm 0.43 in10.9 mm
09:45 PM 39.6°F4.2°C 36.3°F2.4°C 88% 9.2 mph SW14.8 kmh SW 12.7 mph20.4 kmh 29.11 in985.8 mb - 0.02 in0.5 mm 0.43 in10.9 mm
09:50 PM 39.8°F4.3°C 36.6°F2.6°C 88% 10.4 mph WSW16.7 kmh WSW 17.3 mph27.8 kmh 29.11 in985.8 mb - 0.02 in0.5 mm 0.43 in10.9 mm
09:55 PM 40.2°F4.6°C 36.6°F2.6°C 87% 11.5 mph SW18.5 kmh SW 15.0 mph24.1 kmh 29.11 in985.8 mb - 0.02 in0.5 mm 0.43 in10.9 mm
10:00 PM 40.4°F4.7°C 36.5°F2.5°C 86% 11.5 mph SW18.5 kmh SW 16.1 mph25.9 kmh 29.11 in985.8 mb - 0.01 in0.3 mm 0.43 in10.9 mm
10:10 PM 40.5°F4.7°C 36.3°F2.4°C 85% 11.5 mph SW18.5 kmh SW 16.1 mph25.9 kmh 29.12 in986.1 mb - 0.00 in0.0 mm 0.43 in10.9 mm
10:15 PM 40.6°F4.8°C 36.7°F2.6°C 86% 11.5 mph SW18.5 kmh SW 16.1 mph25.9 kmh 29.12 in986.1 mb - 0.00 in0.0 mm 0.43 in10.9 mm
10:20 PM 40.7°F4.8°C 36.9°F2.7°C 86% 16.1 mph WSW25.9 kmh WSW 25.3 mph40.7 kmh 29.13 in986.5 mb - 0.00 in0.0 mm 0.43 in10.9 mm
10:25 PM 41.0°F5.0°C 37.1°F2.8°C 86% 12.7 mph WSW20.4 kmh WSW 17.3 mph27.8 kmh 29.13 in986.5 mb - 0.00 in0.0 mm 0.43 in10.9 mm
10:30 PM 40.9°F4.9°C 37.1°F2.8°C 86% 10.4 mph WSW16.7 kmh WSW 12.7 mph20.4 kmh 29.14 in986.8 mb - 0.00 in0.0 mm 0.43 in10.9 mm
10:35 PM 40.9°F4.9°C 37.0°F2.8°C 86% 15.0 mph WSW24.1 kmh WSW 19.6 mph31.5 kmh 29.14 in986.8 mb - 0.00 in0.0 mm 0.43 in10.9 mm
10:40 PM 40.9°F4.9°C 36.7°F2.6°C 85% 13.8 mph WSW22.2 kmh WSW 19.6 mph31.5 kmh 29.14 in986.8 mb - 0.00 in0.0 mm 0.43 in10.9 mm
10:45 PM 41.1°F5.1°C 36.6°F2.6°C 84% 17.3 mph WSW27.8 kmh WSW 21.9 mph35.2 kmh 29.14 in986.8 mb - 0.00 in0.0 mm 0.43 in10.9 mm
10:50 PM 41.0°F5.0°C 36.8°F2.7°C 85% 11.5 mph WSW18.5 kmh WSW 18.4 mph29.6 kmh 29.15 in987.1 mb - 0.00 in0.0 mm 0.43 in10.9 mm
10:55 PM 40.8°F4.9°C 36.7°F2.6°C 85% 11.5 mph SW18.5 kmh SW 15.0 mph24.1 kmh 29.15 in987.1 mb - 0.00 in0.0 mm 0.43 in10.9 mm
11:00 PM 40.5°F4.7°C 36.3°F2.4°C 85% 12.7 mph SW20.4 kmh SW 19.6 mph31.5 kmh 29.15 in987.1 mb - 0.00 in0.0 mm 0.43 in10.9 mm
11:10 PM 40.2°F4.6°C 36.0°F2.2°C 85% 10.4 mph SW16.7 kmh SW 13.8 mph22.2 kmh 29.16 in987.5 mb - 0.00 in0.0 mm 0.43 in10.9 mm
11:15 PM 40.0°F4.4°C 35.9°F2.2°C 85% 10.4 mph SW16.7 kmh SW 16.1 mph25.9 kmh 29.16 in987.5 mb - 0.00 in0.0 mm 0.43 in10.9 mm
11:20 PM 40.0°F4.4°C 35.9°F2.2°C 85% 10.4 mph SW16.7 kmh SW 17.3 mph27.8 kmh 29.16 in987.5 mb - 0.00 in0.0 mm 0.43 in10.9 mm
11:25 PM 39.9°F4.4°C 35.8°F2.1°C 85% 10.4 mph SW16.7 kmh SW 12.7 mph20.4 kmh 29.17 in987.8 mb - 0.00 in0.0 mm 0.43 in10.9 mm
11:30 PM 40.0°F4.4°C 35.8°F2.1°C 85% 9.2 mph SW14.8 kmh SW 13.8 mph22.2 kmh 29.18 in988.1 mb - 0.00 in0.0 mm 0.43 in10.9 mm
11:35 PM 39.9°F4.4°C 35.7°F2.1°C 85% 10.4 mph WSW16.7 kmh WSW 13.8 mph22.2 kmh 29.18 in988.1 mb - 0.00 in0.0 mm 0.43 in10.9 mm
11:40 PM 39.9°F4.4°C 35.8°F2.1°C 85% 11.5 mph SW18.5 kmh SW 15.0 mph24.1 kmh 29.18 in988.1 mb - 0.00 in0.0 mm 0.43 in10.9 mm
11:45 PM 40.1°F4.5°C 35.7°F2.1°C 84% 11.5 mph SW18.5 kmh SW 13.8 mph22.2 kmh 29.19 in988.5 mb - 0.00 in0.0 mm 0.43 in10.9 mm
11:50 PM 40.1°F4.5°C 35.6°F2.0°C 84% 11.5 mph WSW18.5 kmh WSW 15.0 mph24.1 kmh 29.19 in988.5 mb - 0.00 in0.0 mm 0.43 in10.9 mm
11:55 PM 40.1°F4.5°C 35.9°F2.2°C 85% 11.5 mph SW18.5 kmh SW 15.0 mph24.1 kmh 29.19 in988.5 mb - 0.00 in0.0 mm 0.43 in10.9 mm